sensor_id;sensor_type;location;lat;lon;timestamp;pressure;altitude;pressure_sealevel;temperature;humidity
36598;BME280;22607;49.550;11.940;2022-07-19T00:00:27;97436.13;;;19.07;57.83
36598;BME280;22607;49.550;11.940;2022-07-19T00:03:14;97440.63;;;19.13;57.10
36598;BME280;22607;49.550;11.940;2022-07-19T00:06:02;97438.00;;;19.07;56.68
36598;BME280;22607;49.550;11.940;2022-07-19T00:08:49;97435.13;;;19.01;56.10
36598;BME280;22607;49.550;11.940;2022-07-19T00:11:36;97434.38;;;18.81;57.04
36598;BME280;22607;49.550;11.940;2022-07-19T00:14:24;97438.22;;;18.92;56.15
36598;BME280;22607;49.550;11.940;2022-07-19T00:17:10;97435.00;;;18.83;53.13
36598;BME280;22607;49.550;11.940;2022-07-19T00:19:58;97424.00;;;18.72;53.15
36598;BME280;22607;49.550;11.940;2022-07-19T00:22:45;97429.72;;;18.76;53.66
36598;BME280;22607;49.550;11.940;2022-07-19T00:25:32;97429.28;;;18.79;54.94
36598;BME280;22607;49.550;11.940;2022-07-19T00:28:19;97425.84;;;18.65;56.61
36598;BME280;22607;49.550;11.940;2022-07-19T00:31:06;97429.53;;;18.64;56.63
36598;BME280;22607;49.550;11.940;2022-07-19T00:33:53;97427.50;;;18.59;56.20
36598;BME280;22607;49.550;11.940;2022-07-19T00:36:40;97430.63;;;18.43;62.92
36598;BME280;22607;49.550;11.940;2022-07-19T00:39:27;97425.34;;;18.29;64.00
36598;BME280;22607;49.550;11.940;2022-07-19T00:42:14;97421.66;;;18.17;66.93
36598;BME280;22607;49.550;11.940;2022-07-19T00:45:02;97433.31;;;18.22;66.32
36598;BME280;22607;49.550;11.940;2022-07-19T00:47:49;97421.47;;;18.25;63.50
36598;BME280;22607;49.550;11.940;2022-07-19T00:50:36;97423.28;;;18.04;63.70
36598;BME280;22607;49.550;11.940;2022-07-19T00:53:23;97427.00;;;18.10;62.08
36598;BME280;22607;49.550;11.940;2022-07-19T00:56:11;97427.81;;;18.17;59.14
36598;BME280;22607;49.550;11.940;2022-07-19T00:59:02;97432.69;;;18.14;62.07
36598;BME280;22607;49.550;11.940;2022-07-19T01:01:50;97435.13;;;18.02;61.41
36598;BME280;22607;49.550;11.940;2022-07-19T01:04:38;97434.72;;;18.05;61.43
36598;BME280;22607;49.550;11.940;2022-07-19T01:07:25;97427.16;;;17.95;61.33
36598;BME280;22607;49.550;11.940;2022-07-19T01:10:13;97427.78;;;18.04;61.00
36598;BME280;22607;49.550;11.940;2022-07-19T01:13:01;97426.19;;;18.09;59.46
36598;BME280;22607;49.550;11.940;2022-07-19T01:15:48;97433.94;;;17.91;61.41
36598;BME280;22607;49.550;11.940;2022-07-19T01:18:35;97434.53;;;17.93;63.03
36598;BME280;22607;49.550;11.940;2022-07-19T01:21:25;97434.53;;;17.79;63.94
36598;BME280;22607;49.550;11.940;2022-07-19T01:24:13;97436.59;;;17.77;63.96
36598;BME280;22607;49.550;11.940;2022-07-19T01:27:00;97428.19;;;17.53;66.42
36598;BME280;22607;49.550;11.940;2022-07-19T01:29:47;97433.28;;;17.48;68.13
36598;BME280;22607;49.550;11.940;2022-07-19T01:32:34;97439.38;;;17.35;71.09
36598;BME280;22607;49.550;11.940;2022-07-19T01:35:21;97429.81;;;17.54;66.82
36598;BME280;22607;49.550;11.940;2022-07-19T01:38:08;97437.16;;;17.59;66.69
36598;BME280;22607;49.550;11.940;2022-07-19T01:40:57;97438.81;;;17.53;68.52
36598;BME280;22607;49.550;11.940;2022-07-19T01:43:45;97444.50;;;17.37;69.56
36598;BME280;22607;49.550;11.940;2022-07-19T01:46:32;97441.22;;;17.41;68.83
36598;BME280;22607;49.550;11.940;2022-07-19T01:49:19;97440.59;;;17.32;68.51
36598;BME280;22607;49.550;11.940;2022-07-19T01:52:06;97442.44;;;17.39;68.53
36598;BME280;22607;49.550;11.940;2022-07-19T01:54:53;97444.28;;;17.31;68.10
36598;BME280;22607;49.550;11.940;2022-07-19T01:57:40;97445.31;;;17.30;67.98
36598;BME280;22607;49.550;11.940;2022-07-19T02:00:27;97449.34;;;17.13;68.80
36598;BME280;22607;49.550;11.940;2022-07-19T02:03:13;97445.97;;;16.97;69.94
36598;BME280;22607;49.550;11.940;2022-07-19T02:06:01;97447.22;;;17.01;68.42
36598;BME280;22607;49.550;11.940;2022-07-19T02:08:48;97448.47;;;17.05;68.85
36598;BME280;22607;49.550;11.940;2022-07-19T02:11:35;97452.56;;;17.08;68.97
36598;BME280;22607;49.550;11.940;2022-07-19T02:14:22;97449.19;;;16.86;71.38
36598;BME280;22607;49.550;11.940;2022-07-19T02:17:09;97450.56;;;16.75;72.80
36598;BME280;22607;49.550;11.940;2022-07-19T02:19:56;97447.19;;;16.95;70.82
36598;BME280;22607;49.550;11.940;2022-07-19T02:22:43;97435.53;;;16.89;72.84
36598;BME280;22607;49.550;11.940;2022-07-19T02:25:30;97442.66;;;16.82;73.28
36598;BME280;22607;49.550;11.940;2022-07-19T02:28:17;97441.00;;;16.80;73.26
36598;BME280;22607;49.550;11.940;2022-07-19T02:31:04;97447.94;;;16.82;75.20
36598;BME280;22607;49.550;11.940;2022-07-19T02:33:51;97445.47;;;16.73;75.99
36598;BME280;22607;49.550;11.940;2022-07-19T02:36:38;97440.78;;;16.75;75.88
36598;BME280;22607;49.550;11.940;2022-07-19T02:39:25;97454.00;;;16.69;78.42
36598;BME280;22607;49.550;11.940;2022-07-19T02:42:12;97457.16;;;16.50;79.20
36598;BME280;22607;49.550;11.940;2022-07-19T02:45:00;97451.09;;;16.57;77.71
36598;BME280;22607;49.550;11.940;2022-07-19T02:47:47;97449.50;;;16.69;74.77
36598;BME280;22607;49.550;11.940;2022-07-19T02:50:35;97448.88;;;16.60;82.56
36598;BME280;22607;49.550;11.940;2022-07-19T02:53:22;97460.13;;;16.34;81.78
36598;BME280;22607;49.550;11.940;2022-07-19T02:56:09;97462.31;;;16.23;80.79
36598;BME280;22607;49.550;11.940;2022-07-19T02:58:56;97457.94;;;16.44;76.06
36598;BME280;22607;49.550;11.940;2022-07-19T03:01:43;97460.59;;;16.44;81.39
36598;BME280;22607;49.550;11.940;2022-07-19T03:04:30;97465.94;;;16.16;84.38
36598;BME280;22607;49.550;11.940;2022-07-19T03:07:18;97461.16;;;16.33;83.05
36598;BME280;22607;49.550;11.940;2022-07-19T03:10:05;97458.50;;;16.04;85.68
36598;BME280;22607;49.550;11.940;2022-07-19T03:12:52;97457.94;;;16.09;84.02
36598;BME280;22607;49.550;11.940;2022-07-19T03:15:39;97457.94;;;16.09;85.43
36598;BME280;22607;49.550;11.940;2022-07-19T03:18:26;97461.56;;;16.08;85.62
36598;BME280;22607;49.550;11.940;2022-07-19T03:21:14;97451.19;;;16.06;85.64
36598;BME280;22607;49.550;11.940;2022-07-19T03:24:01;97460.59;;;16.09;83.93
36598;BME280;22607;49.550;11.940;2022-07-19T03:26:48;97460.38;;;16.10;87.71
36598;BME280;22607;49.550;11.940;2022-07-19T03:29:35;97460.72;;;16.00;85.90
36598;BME280;22607;49.550;11.940;2022-07-19T03:32:22;97469.72;;;16.06;84.45
36598;BME280;22607;49.550;11.940;2022-07-19T03:35:09;97470.59;;;15.92;87.00
36598;BME280;22607;49.550;11.940;2022-07-19T03:37:56;97469.69;;;15.99;89.58
36598;BME280;22607;49.550;11.940;2022-07-19T03:40:44;97462.19;;;15.88;89.96
36598;BME280;22607;49.550;11.940;2022-07-19T03:43:33;97460.06;;;15.98;86.12
36598;BME280;22607;49.550;11.940;2022-07-19T03:46:20;97471.06;;;15.95;84.72
36598;BME280;22607;49.550;11.940;2022-07-19T03:49:07;97469.09;;;16.04;86.04
36598;BME280;22607;49.550;11.940;2022-07-19T03:51:54;97462.38;;;15.86;95.69
36598;BME280;22607;49.550;11.940;2022-07-19T03:54:41;97468.16;;;15.90;90.76
36598;BME280;22607;49.550;11.940;2022-07-19T03:57:28;97472.25;;;15.93;89.66
36598;BME280;22607;49.550;11.940;2022-07-19T04:00:15;97469.03;;;15.97;86.09
36598;BME280;22607;49.550;11.940;2022-07-19T04:03:03;97471.38;;;16.07;88.29
36598;BME280;22607;49.550;11.940;2022-07-19T04:05:50;97473.81;;;15.87;92.03
36598;BME280;22607;49.550;11.940;2022-07-19T04:08:37;97471.31;;;16.00;89.22
36598;BME280;22607;49.550;11.940;2022-07-19T04:11:25;97480.88;;;16.01;94.29
36598;BME280;22607;49.550;11.940;2022-07-19T04:14:12;97473.91;;;15.94;93.78
36598;BME280;22607;49.550;11.940;2022-07-19T04:16:59;97482.25;;;15.75;96.15
36598;BME280;22607;49.550;11.940;2022-07-19T04:19:46;97479.44;;;15.99;91.29
36598;BME280;22607;49.550;11.940;2022-07-19T04:22:33;97481.50;;;16.04;96.27
36598;BME280;22607;49.550;11.940;2022-07-19T04:25:20;97482.84;;;15.93;94.76
36598;BME280;22607;49.550;11.940;2022-07-19T04:28:08;97492.25;;;15.95;93.24
36598;BME280;22607;49.550;11.940;2022-07-19T04:30:55;97490.94;;;16.06;92.57
36598;BME280;22607;49.550;11.940;2022-07-19T04:33:42;97487.31;;;16.14;93.38
36598;BME280;22607;49.550;11.940;2022-07-19T04:36:29;97486.78;;;16.25;93.93
36598;BME280;22607;49.550;11.940;2022-07-19T04:39:16;97481.47;;;16.25;94.86
36598;BME280;22607;49.550;11.940;2022-07-19T04:42:03;97492.78;;;16.34;95.26
36598;BME280;22607;49.550;11.940;2022-07-19T04:44:50;97488.91;;;16.37;94.72
36598;BME280;22607;49.550;11.940;2022-07-19T04:47:37;97485.47;;;17.14;86.62
36598;BME280;22607;49.550;11.940;2022-07-19T04:50:25;97485.84;;;18.20;75.24
36598;BME280;22607;49.550;11.940;2022-07-19T04:53:12;97479.13;;;19.04;68.01
36598;BME280;22607;49.550;11.940;2022-07-19T04:55:59;97477.41;;;19.94;61.21
36598;BME280;22607;49.550;11.940;2022-07-19T04:58:46;97466.31;;;20.49;58.03
36598;BME280;22607;49.550;11.940;2022-07-19T05:01:36;97464.69;;;21.22;54.46
36598;BME280;22607;49.550;11.940;2022-07-19T05:04:24;97460.13;;;21.54;52.36
36598;BME280;22607;49.550;11.940;2022-07-19T05:07:11;97464.19;;;21.87;50.68
36598;BME280;22607;49.550;11.940;2022-07-19T05:09:58;97464.34;;;22.16;49.29
36598;BME280;22607;49.550;11.940;2022-07-19T05:12:47;97457.09;;;21.93;49.95
36598;BME280;22607;49.550;11.940;2022-07-19T05:15:34;97467.22;;;21.90;50.70
36598;BME280;22607;49.550;11.940;2022-07-19T05:18:21;97454.22;;;22.66;48.48
36598;BME280;22607;49.550;11.940;2022-07-19T05:21:08;97459.94;;;23.11;46.76
36598;BME280;22607;49.550;11.940;2022-07-19T05:23:55;97470.22;;;23.31;46.18
36598;BME280;22607;49.550;11.940;2022-07-19T05:26:42;97464.81;;;23.72;44.73
36598;BME280;22607;49.550;11.940;2022-07-19T05:29:29;97464.81;;;23.89;44.09
36598;BME280;22607;49.550;11.940;2022-07-19T05:32:16;97457.44;;;24.31;41.45
36598;BME280;22607;49.550;11.940;2022-07-19T05:35:04;97457.19;;;24.32;40.42
36598;BME280;22607;49.550;11.940;2022-07-19T05:37:51;97457.03;;;24.22;40.65
36598;BME280;22607;49.550;11.940;2022-07-19T05:40:38;97462.56;;;24.15;40.63
36598;BME280;22607;49.550;11.940;2022-07-19T05:43:25;97465.88;;;24.22;40.65
36598;BME280;22607;49.550;11.940;2022-07-19T05:46:12;97455.81;;;24.30;40.21
36598;BME280;22607;49.550;11.940;2022-07-19T05:48:59;97446.91;;;24.86;40.61
36598;BME280;22607;49.550;11.940;2022-07-19T05:51:46;97456.34;;;24.88;40.32
36598;BME280;22607;49.550;11.940;2022-07-19T05:54:33;97448.72;;;25.30;39.41
36598;BME280;22607;49.550;11.940;2022-07-19T05:57:20;97443.81;;;25.77;38.42
36598;BME280;22607;49.550;11.940;2022-07-19T06:00:08;97447.88;;;25.79;37.81
36598;BME280;22607;49.550;11.940;2022-07-19T06:02:55;97444.97;;;25.86;37.38
36598;BME280;22607;49.550;11.940;2022-07-19T06:05:42;97441.19;;;25.87;37.91
36598;BME280;22607;49.550;11.940;2022-07-19T06:08:29;97443.53;;;26.11;37.86
36598;BME280;22607;49.550;11.940;2022-07-19T06:11:17;97444.38;;;26.17;37.38
36598;BME280;22607;49.550;11.940;2022-07-19T06:14:04;97448.53;;;26.35;37.03
36598;BME280;22607;49.550;11.940;2022-07-19T06:16:53;97440.97;;;26.27;36.58
36598;BME280;22607;49.550;11.940;2022-07-19T06:19:40;97441.66;;;26.55;36.91
36598;BME280;22607;49.550;11.940;2022-07-19T06:22:31;97438.91;;;27.03;35.99
36598;BME280;22607;49.550;11.940;2022-07-19T06:25:18;97444.13;;;27.41;35.29
36598;BME280;22607;49.550;11.940;2022-07-19T06:28:05;97442.50;;;27.40;35.50
36598;BME280;22607;49.550;11.940;2022-07-19T06:30:53;97442.78;;;27.49;35.36
36598;BME280;22607;49.550;11.940;2022-07-19T06:33:41;97443.09;;;27.89;34.16
36598;BME280;22607;49.550;11.940;2022-07-19T06:36:28;97434.72;;;27.90;34.04
36598;BME280;22607;49.550;11.940;2022-07-19T06:39:15;97435.25;;;28.08;33.84
36598;BME280;22607;49.550;11.940;2022-07-19T06:42:02;97440.25;;;28.72;33.11
36598;BME280;22607;49.550;11.940;2022-07-19T06:44:49;97431.06;;;28.68;32.69
36598;BME280;22607;49.550;11.940;2022-07-19T06:47:36;97429.97;;;28.79;32.54
36598;BME280;22607;49.550;11.940;2022-07-19T06:50:24;97425.88;;;28.92;32.58
36598;BME280;22607;49.550;11.940;2022-07-19T06:53:28;97422.03;;;29.04;31.28
36598;BME280;22607;49.550;11.940;2022-07-19T06:56:15;97420.28;;;29.29;30.45
36598;BME280;22607;49.550;11.940;2022-07-19T06:59:02;97422.53;;;29.56;31.25
36598;BME280;22607;49.550;11.940;2022-07-19T07:01:49;97417.63;;;29.64;31.47
36598;BME280;22607;49.550;11.940;2022-07-19T07:04:36;97417.56;;;29.69;31.23
36598;BME280;22607;49.550;11.940;2022-07-19T07:07:32;97412.63;;;30.06;30.34
36598;BME280;22607;49.550;11.940;2022-07-19T07:10:19;97410.53;;;30.27;30.18
36598;BME280;22607;49.550;11.940;2022-07-19T07:13:06;97402.78;;;30.45;30.00
36598;BME280;22607;49.550;11.940;2022-07-19T07:15:54;97404.84;;;30.53;29.67
36598;BME280;22607;49.550;11.940;2022-07-19T07:18:41;97407.72;;;31.25;29.00
36598;BME280;22607;49.550;11.940;2022-07-19T07:21:28;97405.22;;;31.28;29.22
36598;BME280;22607;49.550;11.940;2022-07-19T07:24:16;97404.91;;;31.68;28.89
36598;BME280;22607;49.550;11.940;2022-07-19T07:27:04;97407.53;;;31.74;27.91
36598;BME280;22607;49.550;11.940;2022-07-19T07:29:52;97402.69;;;31.70;27.93
36598;BME280;22607;49.550;11.940;2022-07-19T07:32:39;97405.25;;;31.48;27.70
36598;BME280;22607;49.550;11.940;2022-07-19T07:35:26;97404.00;;;31.73;27.07
36598;BME280;22607;49.550;11.940;2022-07-19T07:38:13;97402.03;;;31.79;27.05
36598;BME280;22607;49.550;11.940;2022-07-19T07:41:03;97399.22;;;31.84;27.35
36598;BME280;22607;49.550;11.940;2022-07-19T07:44:10;97401.78;;;31.94;26.95
36598;BME280;22607;49.550;11.940;2022-07-19T07:46:57;97398.38;;;32.03;26.74
36598;BME280;22607;49.550;11.940;2022-07-19T07:49:44;97388.91;;;32.00;27.30
36598;BME280;22607;49.550;11.940;2022-07-19T07:52:32;97391.56;;;32.33;26.47
36598;BME280;22607;49.550;11.940;2022-07-19T07:55:19;97391.16;;;32.40;27.06
36598;BME280;22607;49.550;11.940;2022-07-19T07:58:14;97393.47;;;32.61;25.97
36598;BME280;22607;49.550;11.940;2022-07-19T08:01:01;97380.41;;;32.63;25.95
36598;BME280;22607;49.550;11.940;2022-07-19T08:03:49;97386.63;;;33.15;25.24
36598;BME280;22607;49.550;11.940;2022-07-19T08:06:36;97386.56;;;33.06;25.25
36598;BME280;22607;49.550;11.940;2022-07-19T08:09:23;97386.72;;;32.58;26.25
36598;BME280;22607;49.550;11.940;2022-07-19T08:12:10;97385.13;;;32.71;25.49
36598;BME280;22607;49.550;11.940;2022-07-19T08:14:57;97385.31;;;32.75;25.38
36598;BME280;22607;49.550;11.940;2022-07-19T08:17:44;97371.28;;;33.33;25.06
36598;BME280;22607;49.550;11.940;2022-07-19T08:20:31;97378.69;;;33.64;24.94
36598;BME280;22607;49.550;11.940;2022-07-19T08:23:18;97363.66;;;33.67;24.58
36598;BME280;22607;49.550;11.940;2022-07-19T08:26:05;97368.78;;;32.99;25.13
36598;BME280;22607;49.550;11.940;2022-07-19T08:28:52;97361.72;;;33.44;24.64
36598;BME280;22607;49.550;11.940;2022-07-19T08:31:39;97360.06;;;33.57;24.60
36598;BME280;22607;49.550;11.940;2022-07-19T08:34:27;97354.31;;;33.59;24.12
36598;BME280;22607;49.550;11.940;2022-07-19T08:37:14;97354.25;;;33.73;24.41
36598;BME280;22607;49.550;11.940;2022-07-19T08:40:03;97350.53;;;34.00;23.75
36598;BME280;22607;49.550;11.940;2022-07-19T08:42:50;97358.88;;;33.72;23.83
36598;BME280;22607;49.550;11.940;2022-07-19T08:45:38;97340.91;;;34.52;23.51
36598;BME280;22607;49.550;11.940;2022-07-19T08:48:35;97343.91;;;35.00;22.83
36598;BME280;22607;49.550;11.940;2022-07-19T08:51:32;97338.44;;;34.24;23.46
36598;BME280;22607;49.550;11.940;2022-07-19T08:54:19;97327.69;;;35.13;22.29
36598;BME280;22607;49.550;11.940;2022-07-19T08:57:07;97337.13;;;34.62;22.61
36598;BME280;22607;49.550;11.940;2022-07-19T09:00:13;97340.19;;;34.96;22.38
36598;BME280;22607;49.550;11.940;2022-07-19T09:03:06;97336.84;;;35.26;22.24
36598;BME280;22607;49.550;11.940;2022-07-19T09:06:03;97336.63;;;35.57;21.33
36598;BME280;22607;49.550;11.940;2022-07-19T09:08:51;97330.91;;;35.24;22.14
36598;BME280;22607;49.550;11.940;2022-07-19T09:11:40;97328.88;;;35.77;21.19
36598;BME280;22607;49.550;11.940;2022-07-19T09:14:40;97338.84;;;35.73;20.98
36598;BME280;22607;49.550;11.940;2022-07-19T09:17:28;97326.19;;;35.51;21.36
36598;BME280;22607;49.550;11.940;2022-07-19T09:20:26;97322.63;;;35.68;20.97
36598;BME280;22607;49.550;11.940;2022-07-19T09:23:13;97324.03;;;35.74;20.36
36598;BME280;22607;49.550;11.940;2022-07-19T09:26:04;97307.03;;;35.77;19.97
36598;BME280;22607;49.550;11.940;2022-07-19T09:28:51;97313.63;;;36.06;19.91
36598;BME280;22607;49.550;11.940;2022-07-19T09:32:01;97310.91;;;36.06;20.08
36598;BME280;22607;49.550;11.940;2022-07-19T09:37:35;97307.66;;;35.74;19.08
36598;BME280;22607;49.550;11.940;2022-07-19T09:40:22;97305.94;;;35.69;19.43
36598;BME280;22607;49.550;11.940;2022-07-19T09:43:09;97313.97;;;35.66;18.74
36598;BME280;22607;49.550;11.940;2022-07-19T09:45:59;97310.44;;;35.65;19.37
36598;BME280;22607;49.550;11.940;2022-07-19T09:48:46;97302.28;;;35.39;19.17
36598;BME280;22607;49.550;11.940;2022-07-19T09:51:35;97307.59;;;35.35;19.35
36598;BME280;22607;49.550;11.940;2022-07-19T09:54:25;97312.03;;;35.57;18.95
36598;BME280;22607;49.550;11.940;2022-07-19T09:57:13;97312.56;;;35.33;19.37
36598;BME280;22607;49.550;11.940;2022-07-19T10:00:03;97306.31;;;35.41;18.82
36598;BME280;22607;49.550;11.940;2022-07-19T10:02:59;97311.75;;;35.41;20.04
36598;BME280;22607;49.550;11.940;2022-07-19T10:05:47;97306.44;;;35.45;19.17
36598;BME280;22607;49.550;11.940;2022-07-19T10:08:35;97314.91;;;35.61;19.35
36598;BME280;22607;49.550;11.940;2022-07-19T10:11:22;97315.00;;;35.08;19.50
36598;BME280;22607;49.550;11.940;2022-07-19T10:14:10;97303.66;;;35.63;19.92
36598;BME280;22607;49.550;11.940;2022-07-19T10:17:26;97304.63;;;35.58;19.41
36598;BME280;22607;49.550;11.940;2022-07-19T10:20:16;97299.50;;;36.04;18.74
36598;BME280;22607;49.550;11.940;2022-07-19T10:23:06;97288.19;;;35.28;19.80
36598;BME280;22607;49.550;11.940;2022-07-19T10:25:53;97283.97;;;35.96;18.50
36598;BME280;22607;49.550;11.940;2022-07-19T10:28:40;97284.56;;;35.63;19.23
36598;BME280;22607;49.550;11.940;2022-07-19T10:32:03;97280.50;;;35.78;18.73
36598;BME280;22607;49.550;11.940;2022-07-19T10:40:52;97268.19;;;36.53;18.97
36598;BME280;22607;49.550;11.940;2022-07-19T10:44:09;97279.06;;;35.80;18.94
36598;BME280;22607;49.550;11.940;2022-07-19T10:46:56;97277.09;;;35.90;19.91
36598;BME280;22607;49.550;11.940;2022-07-19T10:49:45;97275.38;;;35.76;18.89
36598;BME280;22607;49.550;11.940;2022-07-19T10:52:38;97270.91;;;35.63;19.38
36598;BME280;22607;49.550;11.940;2022-07-19T10:55:26;97276.25;;;36.28;18.97
36598;BME280;22607;49.550;11.940;2022-07-19T10:58:16;97261.19;;;36.43;19.04
36598;BME280;22607;49.550;11.940;2022-07-19T11:01:15;97254.53;;;36.74;18.19
36598;BME280;22607;49.550;11.940;2022-07-19T11:04:55;97261.81;;;36.70;18.46
36598;BME280;22607;49.550;11.940;2022-07-19T11:07:35;97255.78;;;36.34;18.52
36598;BME280;22607;49.550;11.940;2022-07-19T11:10:27;97255.13;;;35.77;18.25
36598;BME280;22607;49.550;11.940;2022-07-19T11:13:15;97249.97;;;36.15;18.32
36598;BME280;22607;49.550;11.940;2022-07-19T11:16:03;97251.97;;;36.26;18.08
36598;BME280;22607;49.550;11.940;2022-07-19T11:18:51;97240.31;;;36.38;18.60
36598;BME280;22607;49.550;11.940;2022-07-19T11:21:38;97232.19;;;37.06;17.57
36598;BME280;22607;49.550;11.940;2022-07-19T11:24:28;97236.19;;;37.09;17.13
36598;BME280;22607;49.550;11.940;2022-07-19T11:27:16;97231.94;;;36.99;16.80
36598;BME280;22607;49.550;11.940;2022-07-19T11:30:05;97226.94;;;36.67;17.19
36598;BME280;22607;49.550;11.940;2022-07-19T11:32:55;97233.25;;;36.59;17.61
36598;BME280;22607;49.550;11.940;2022-07-19T11:36:12;97228.59;;;36.38;17.49
36598;BME280;22607;49.550;11.940;2022-07-19T11:39:01;97224.38;;;36.19;18.18
36598;BME280;22607;49.550;11.940;2022-07-19T11:41:49;97223.84;;;36.47;17.59
36598;BME280;22607;49.550;11.940;2022-07-19T11:44:37;97213.56;;;36.44;17.81
36598;BME280;22607;49.550;11.940;2022-07-19T11:47:24;97208.28;;;36.60;17.81
36598;BME280;22607;49.550;11.940;2022-07-19T11:50:13;97212.00;;;36.22;17.50
36598;BME280;22607;49.550;11.940;2022-07-19T11:53:01;97213.91;;;36.43;17.25
36598;BME280;22607;49.550;11.940;2022-07-19T11:55:48;97215.38;;;36.19;17.40
36598;BME280;22607;49.550;11.940;2022-07-19T11:58:35;97200.91;;;36.39;17.20
36598;BME280;22607;49.550;11.940;2022-07-19T12:01:24;97203.59;;;36.27;17.26
36598;BME280;22607;49.550;11.940;2022-07-19T12:04:12;97204.53;;;36.31;17.11
36598;BME280;22607;49.550;11.940;2022-07-19T12:07:00;97200.25;;;36.21;18.37
36598;BME280;22607;49.550;11.940;2022-07-19T12:09:47;97197.97;;;36.23;17.56
36598;BME280;22607;49.550;11.940;2022-07-19T12:12:40;97198.88;;;36.49;17.78
36598;BME280;22607;49.550;11.940;2022-07-19T12:15:51;97205.59;;;36.09;17.87
36598;BME280;22607;49.550;11.940;2022-07-19T12:24:26;97194.53;;;36.35;17.98
36598;BME280;22607;49.550;11.940;2022-07-19T12:27:15;97188.84;;;36.41;18.60
36598;BME280;22607;49.550;11.940;2022-07-19T12:30:04;97182.63;;;36.74;18.17
36598;BME280;22607;49.550;11.940;2022-07-19T12:32:52;97179.47;;;36.84;18.01
36598;BME280;22607;49.550;11.940;2022-07-19T12:35:44;97173.66;;;36.86;18.57
36598;BME280;22607;49.550;11.940;2022-07-19T12:38:33;97162.53;;;37.03;17.80
36598;BME280;22607;49.550;11.940;2022-07-19T12:41:20;97169.50;;;36.80;17.10
36598;BME280;22607;49.550;11.940;2022-07-19T12:44:07;97166.06;;;36.70;17.80
36598;BME280;22607;49.550;11.940;2022-07-19T12:46:54;97172.25;;;36.58;17.83
36598;BME280;22607;49.550;11.940;2022-07-19T12:50:01;97169.41;;;36.55;16.99
36598;BME280;22607;49.550;11.940;2022-07-19T12:52:59;97182.84;;;36.26;17.33
36598;BME280;22607;49.550;11.940;2022-07-19T12:55:48;97170.19;;;36.21;17.61
36598;BME280;22607;49.550;11.940;2022-07-19T12:58:35;97168.78;;;36.15;17.68
36598;BME280;22607;49.550;11.940;2022-07-19T13:01:40;97156.09;;;36.32;18.58
36598;BME280;22607;49.550;11.940;2022-07-19T13:04:28;97153.22;;;36.49;18.00
36598;BME280;22607;49.550;11.940;2022-07-19T13:07:15;97152.47;;;36.61;17.42
36598;BME280;22607;49.550;11.940;2022-07-19T13:10:03;97150.19;;;36.63;17.50
36598;BME280;22607;49.550;11.940;2022-07-19T13:12:50;97145.47;;;36.85;17.28
36598;BME280;22607;49.550;11.940;2022-07-19T13:15:37;97143.31;;;36.45;17.53
36598;BME280;22607;49.550;11.940;2022-07-19T13:18:24;97138.97;;;36.77;17.90
36598;BME280;22607;49.550;11.940;2022-07-19T13:21:11;97131.34;;;36.96;17.15
36598;BME280;22607;49.550;11.940;2022-07-19T13:23:58;97130.97;;;37.19;17.28
36598;BME280;22607;49.550;11.940;2022-07-19T13:26:55;97125.72;;;37.13;17.05
36598;BME280;22607;49.550;11.940;2022-07-19T13:29:42;97135.94;;;36.91;17.00
36598;BME280;22607;49.550;11.940;2022-07-19T13:32:29;97128.44;;;37.13;17.05
36598;BME280;22607;49.550;11.940;2022-07-19T13:35:16;97120.44;;;37.08;17.39
36598;BME280;22607;49.550;11.940;2022-07-19T13:38:05;97120.22;;;37.01;16.76
36598;BME280;22607;49.550;11.940;2022-07-19T13:40:52;97119.59;;;36.49;17.58
36598;BME280;22607;49.550;11.940;2022-07-19T13:43:39;97123.00;;;36.67;17.46
36598;BME280;22607;49.550;11.940;2022-07-19T13:46:26;97124.28;;;36.82;17.62
36598;BME280;22607;49.550;11.940;2022-07-19T13:49:14;97116.50;;;36.72;17.52
36598;BME280;22607;49.550;11.940;2022-07-19T13:52:01;97114.16;;;36.61;16.92
36598;BME280;22607;49.550;11.940;2022-07-19T13:54:48;97109.00;;;36.69;17.52
36598;BME280;22607;49.550;11.940;2022-07-19T13:57:35;97109.34;;;36.92;17.15
36598;BME280;22607;49.550;11.940;2022-07-19T14:00:22;97104.75;;;37.30;16.75
36598;BME280;22607;49.550;11.940;2022-07-19T14:03:10;97107.56;;;37.09;16.49
36598;BME280;22607;49.550;11.940;2022-07-19T14:05:57;97107.44;;;36.93;16.86
36598;BME280;22607;49.550;11.940;2022-07-19T14:08:44;97101.25;;;36.96;17.09
36598;BME280;22607;49.550;11.940;2022-07-19T14:11:32;97088.72;;;36.95;16.42
36598;BME280;22607;49.550;11.940;2022-07-19T14:14:19;97088.75;;;36.61;17.09
36598;BME280;22607;49.550;11.940;2022-07-19T14:17:06;97084.72;;;36.92;16.63
36598;BME280;22607;49.550;11.940;2022-07-19T14:19:53;97085.69;;;36.62;16.81
36598;BME280;22607;49.550;11.940;2022-07-19T14:22:40;97076.94;;;36.69;16.55
36598;BME280;22607;49.550;11.940;2022-07-19T14:25:27;97074.91;;;36.78;16.51
36598;BME280;22607;49.550;11.940;2022-07-19T14:28:14;97070.47;;;36.86;16.69
36598;BME280;22607;49.550;11.940;2022-07-19T14:31:02;97078.78;;;36.77;16.50
36598;BME280;22607;49.550;11.940;2022-07-19T14:33:49;97068.16;;;36.63;17.01
36598;BME280;22607;49.550;11.940;2022-07-19T14:36:56;97075.81;;;36.70;16.45
36598;BME280;22607;49.550;11.940;2022-07-19T14:39:43;97066.72;;;36.66;17.32
36598;BME280;22607;49.550;11.940;2022-07-19T14:42:30;97058.03;;;36.89;16.21
36598;BME280;22607;49.550;11.940;2022-07-19T14:45:18;97062.69;;;36.63;17.13
36598;BME280;22607;49.550;11.940;2022-07-19T14:48:05;97061.94;;;36.88;16.39
36598;BME280;22607;49.550;11.940;2022-07-19T14:50:54;97056.13;;;37.02;16.00
36598;BME280;22607;49.550;11.940;2022-07-19T14:53:41;97056.00;;;36.86;16.32
36598;BME280;22607;49.550;11.940;2022-07-19T14:56:28;97049.06;;;37.01;16.53